Hauptseite
METAR-TAF:

METAR-TAF

Flughäfen :

Flughafen Arad

Arad, Rumänien

Breite: 46-12N, Länge: 021-24E, Höhe: 117 m

Beobachtung

Neuester Wetterbericht von vor 13 Minuten, um 17:30 UTC
Wind 5 kt aus Ost/Nordost
Temperatur 28°C
Luftfeuchtigkeit 37%
Luftdruck 1016 hPa
Sichtweite 10 km oder mehr
Sprühregen leicht

METAR: LRAR 181730Z AUTO 06005KT 9999 -DZ NCD 28/12 Q1016

Zeit: 20:43 (17:43 UTC)

Prognose

Neuester Wetterbericht von vor 3 Stunden und 43 Minuten, um 14:00 UTC
Gültige Prognose vom 18 um 15 UTC bis 18 um 24 UTC
Wind 4 kt aus unterschiedlichen Richtungen
Sichtweite 10 km oder mehr
keine Wolken unter 1500 m und keine Kumulonimbus oder Gewitterwolken

TAF: LRAR 181400Z 1815/1824 VRB04KT CAVOK

Wetterbeobachtungen und Prognosen von mehr als 4000 Flughäfen (METAR und TAF Bericht).

Die verfügbaren Stationen werden durch gelbe und rote Markierungen auf der Karte dargestellt.

Führen Sie die Maus auf sie, um den Namen der Station zu sehen.

Darauf klicken, um die Beobachtung von Wetterbeobachtungen und Prognosen zu sehen.

Um die Karte zu ändern : klicken Sie auf den grünen Tasten mit einem schwarzen Kreuz Zum Vergrößern, auf den grünen Button mit einem Gedankenstrich zu verkleinern, oder auf die grünen Pfeile für benachbarte Karten.


METAR-TAF: